sensor_id;sensor_type;location;lat;lon;timestamp;P1;durP1;ratioP1;P2;durP2;ratioP2
35056;SDS011;21241;51.828;19.574;2023-06-10T00:00:05;20.60;;;19.40;;
35056;SDS011;21241;51.828;19.574;2023-06-10T00:02:58;21.90;;;20.40;;
35056;SDS011;21241;51.828;19.574;2023-06-10T00:05:28;21.90;;;20.50;;
35056;SDS011;21241;51.828;19.574;2023-06-10T00:07:58;23.60;;;22.10;;
35056;SDS011;21241;51.828;19.574;2023-06-10T00:10:27;21.70;;;20.30;;
35056;SDS011;21241;51.828;19.574;2023-06-10T00:12:55;21.80;;;20.50;;
35056;SDS011;21241;51.828;19.574;2023-06-10T00:15:23;22.00;;;20.50;;
35056;SDS011;21241;51.828;19.574;2023-06-10T00:17:51;20.80;;;19.50;;
35056;SDS011;21241;51.828;19.574;2023-06-10T00:20:22;22.20;;;20.90;;
35056;SDS011;21241;51.828;19.574;2023-06-10T00:22:53;23.00;;;21.50;;
35056;SDS011;21241;51.828;19.574;2023-06-10T00:25:21;22.90;;;21.30;;
35056;SDS011;21241;51.828;19.574;2023-06-10T00:27:48;22.80;;;21.40;;
35056;SDS011;21241;51.828;19.574;2023-06-10T00:30:16;23.70;;;22.20;;
35056;SDS011;21241;51.828;19.574;2023-06-10T00:32:44;22.90;;;21.30;;
35056;SDS011;21241;51.828;19.574;2023-06-10T00:35:12;23.70;;;22.20;;
35056;SDS011;21241;51.828;19.574;2023-06-10T00:37:40;23.80;;;22.30;;
35056;SDS011;21241;51.828;19.574;2023-06-10T00:40:09;24.80;;;23.30;;
35056;SDS011;21241;51.828;19.574;2023-06-10T00:42:37;25.70;;;24.00;;
35056;SDS011;21241;51.828;19.574;2023-06-10T00:45:05;24.50;;;23.00;;
35056;SDS011;21241;51.828;19.574;2023-06-10T00:47:36;26.30;;;24.60;;
35056;SDS011;21241;51.828;19.574;2023-06-10T00:50:04;24.10;;;22.60;;
35056;SDS011;21241;51.828;19.574;2023-06-10T00:52:33;22.90;;;21.40;;
35056;SDS011;21241;51.828;19.574;2023-06-10T00:55:02;22.90;;;21.60;;
35056;SDS011;21241;51.828;19.574;2023-06-10T00:57:30;23.50;;;22.00;;
35056;SDS011;21241;51.828;19.574;2023-06-10T00:59:57;23.80;;;22.40;;
35056;SDS011;21241;51.828;19.574;2023-06-10T01:02:27;22.80;;;21.40;;
35056;SDS011;21241;51.828;19.574;2023-06-10T01:04:58;23.10;;;21.60;;
35056;SDS011;21241;51.828;19.574;2023-06-10T01:07:39;22.00;;;20.60;;
35056;SDS011;21241;51.828;19.574;2023-06-10T01:10:19;23.20;;;21.70;;
35056;SDS011;21241;51.828;19.574;2023-06-10T01:12:55;22.70;;;21.40;;
35056;SDS011;21241;51.828;19.574;2023-06-10T01:15:35;22.00;;;20.70;;
35056;SDS011;21241;51.828;19.574;2023-06-10T01:18:03;21.80;;;20.40;;
35056;SDS011;21241;51.828;19.574;2023-06-10T01:20:36;21.30;;;19.90;;
35056;SDS011;21241;51.828;19.574;2023-06-10T01:23:08;23.20;;;21.60;;
35056;SDS011;21241;51.828;19.574;2023-06-10T01:25:38;21.90;;;20.40;;
35056;SDS011;21241;51.828;19.574;2023-06-10T01:28:12;21.60;;;20.30;;
35056;SDS011;21241;51.828;19.574;2023-06-10T01:30:53;21.90;;;20.60;;
35056;SDS011;21241;51.828;19.574;2023-06-10T01:33:33;23.00;;;21.40;;
35056;SDS011;21241;51.828;19.574;2023-06-10T01:36:03;22.60;;;21.10;;
35056;SDS011;21241;51.828;19.574;2023-06-10T01:38:33;21.60;;;20.20;;
35056;SDS011;21241;51.828;19.574;2023-06-10T01:41:04;22.10;;;20.70;;
35056;SDS011;21241;51.828;19.574;2023-06-10T01:43:34;21.80;;;20.40;;
35056;SDS011;21241;51.828;19.574;2023-06-10T01:46:02;20.10;;;18.90;;
35056;SDS011;21241;51.828;19.574;2023-06-10T01:48:31;20.80;;;19.60;;
35056;SDS011;21241;51.828;19.574;2023-06-10T01:51:00;20.90;;;19.70;;
35056;SDS011;21241;51.828;19.574;2023-06-10T01:53:27;20.80;;;19.60;;
35056;SDS011;21241;51.828;19.574;2023-06-10T01:55:55;20.90;;;19.70;;
35056;SDS011;21241;51.828;19.574;2023-06-10T01:58:23;21.50;;;20.30;;
35056;SDS011;21241;51.828;19.574;2023-06-10T02:00:51;21.60;;;20.20;;
35056;SDS011;21241;51.828;19.574;2023-06-10T02:03:19;21.90;;;20.50;;
35056;SDS011;21241;51.828;19.574;2023-06-10T02:05:47;22.70;;;21.30;;
35056;SDS011;21241;51.828;19.574;2023-06-10T02:08:16;23.90;;;22.20;;
35056;SDS011;21241;51.828;19.574;2023-06-10T02:10:44;23.30;;;21.70;;
35056;SDS011;21241;51.828;19.574;2023-06-10T02:13:11;22.00;;;20.60;;
35056;SDS011;21241;51.828;19.574;2023-06-10T02:15:39;22.80;;;21.30;;
35056;SDS011;21241;51.828;19.574;2023-06-10T02:18:07;23.40;;;21.90;;
35056;SDS011;21241;51.828;19.574;2023-06-10T02:20:35;23.30;;;21.80;;
35056;SDS011;21241;51.828;19.574;2023-06-10T02:23:03;23.20;;;21.80;;
35056;SDS011;21241;51.828;19.574;2023-06-10T02:25:31;24.10;;;22.60;;
35056;SDS011;21241;51.828;19.574;2023-06-10T02:27:59;24.90;;;23.20;;
35056;SDS011;21241;51.828;19.574;2023-06-10T02:30:27;24.10;;;22.50;;
35056;SDS011;21241;51.828;19.574;2023-06-10T02:32:54;23.50;;;22.20;;
35056;SDS011;21241;51.828;19.574;2023-06-10T02:35:25;23.50;;;22.10;;
35056;SDS011;21241;51.828;19.574;2023-06-10T02:37:53;23.50;;;22.00;;
35056;SDS011;21241;51.828;19.574;2023-06-10T02:40:21;25.50;;;23.80;;
35056;SDS011;21241;51.828;19.574;2023-06-10T02:42:49;25.30;;;23.70;;
35056;SDS011;21241;51.828;19.574;2023-06-10T02:45:17;25.60;;;24.10;;
35056;SDS011;21241;51.828;19.574;2023-06-10T02:47:45;23.90;;;22.40;;
35056;SDS011;21241;51.828;19.574;2023-06-10T02:50:13;25.60;;;24.10;;
35056;SDS011;21241;51.828;19.574;2023-06-10T02:52:49;28.40;;;26.60;;
35056;SDS011;21241;51.828;19.574;2023-06-10T02:55:17;29.90;;;27.90;;
35056;SDS011;21241;51.828;19.574;2023-06-10T02:57:49;29.40;;;27.60;;
35056;SDS011;21241;51.828;19.574;2023-06-10T03:00:17;30.30;;;28.50;;
35056;SDS011;21241;51.828;19.574;2023-06-10T03:02:47;31.10;;;29.20;;
35056;SDS011;21241;51.828;19.574;2023-06-10T03:05:17;33.00;;;31.00;;
35056;SDS011;21241;51.828;19.574;2023-06-10T03:07:46;32.60;;;30.60;;
35056;SDS011;21241;51.828;19.574;2023-06-10T03:10:15;33.20;;;31.20;;
35056;SDS011;21241;51.828;19.574;2023-06-10T03:12:43;32.80;;;30.80;;
35056;SDS011;21241;51.828;19.574;2023-06-10T03:15:12;33.80;;;31.80;;
35056;SDS011;21241;51.828;19.574;2023-06-10T03:17:40;32.10;;;30.00;;
35056;SDS011;21241;51.828;19.574;2023-06-10T03:20:09;31.80;;;29.90;;
35056;SDS011;21241;51.828;19.574;2023-06-10T03:22:39;31.10;;;29.10;;
35056;SDS011;21241;51.828;19.574;2023-06-10T03:25:09;32.50;;;30.50;;
35056;SDS011;21241;51.828;19.574;2023-06-10T03:27:43;30.30;;;28.50;;
35056;SDS011;21241;51.828;19.574;2023-06-10T03:30:12;30.80;;;28.80;;
35056;SDS011;21241;51.828;19.574;2023-06-10T03:32:41;29.40;;;27.40;;
35056;SDS011;21241;51.828;19.574;2023-06-10T03:35:10;27.90;;;26.20;;
35056;SDS011;21241;51.828;19.574;2023-06-10T03:37:39;24.20;;;22.60;;
35056;SDS011;21241;51.828;19.574;2023-06-10T03:40:07;23.40;;;21.90;;
35056;SDS011;21241;51.828;19.574;2023-06-10T03:42:37;23.20;;;21.70;;
35056;SDS011;21241;51.828;19.574;2023-06-10T03:45:06;23.50;;;21.90;;
35056;SDS011;21241;51.828;19.574;2023-06-10T03:47:35;23.70;;;22.00;;
35056;SDS011;21241;51.828;19.574;2023-06-10T03:50:07;23.50;;;21.80;;
35056;SDS011;21241;51.828;19.574;2023-06-10T03:52:37;22.70;;;21.10;;
35056;SDS011;21241;51.828;19.574;2023-06-10T03:55:05;21.90;;;20.50;;
35056;SDS011;21241;51.828;19.574;2023-06-10T03:57:35;21.30;;;19.80;;
35056;SDS011;21241;51.828;19.574;2023-06-10T04:00:03;21.10;;;19.60;;
35056;SDS011;21241;51.828;19.574;2023-06-10T04:02:41;20.90;;;19.40;;
35056;SDS011;21241;51.828;19.574;2023-06-10T04:05:18;21.00;;;19.50;;
35056;SDS011;21241;51.828;19.574;2023-06-10T04:07:49;20.00;;;18.60;;
35056;SDS011;21241;51.828;19.574;2023-06-10T04:10:17;19.70;;;18.40;;
35056;SDS011;21241;51.828;19.574;2023-06-10T04:12:45;19.50;;;18.10;;
35056;SDS011;21241;51.828;19.574;2023-06-10T04:15:13;19.40;;;18.10;;
35056;SDS011;21241;51.828;19.574;2023-06-10T04:17:41;18.70;;;17.40;;
35056;SDS011;21241;51.828;19.574;2023-06-10T04:20:11;18.00;;;16.70;;
35056;SDS011;21241;51.828;19.574;2023-06-10T04:22:40;16.30;;;15.00;;
35056;SDS011;21241;51.828;19.574;2023-06-10T04:25:09;15.20;;;14.10;;
35056;SDS011;21241;51.828;19.574;2023-06-10T04:27:38;14.90;;;13.90;;
35056;SDS011;21241;51.828;19.574;2023-06-10T04:30:06;14.00;;;13.00;;
35056;SDS011;21241;51.828;19.574;2023-06-10T04:32:35;13.40;;;12.20;;
35056;SDS011;21241;51.828;19.574;2023-06-10T04:35:05;14.40;;;12.90;;
35056;SDS011;21241;51.828;19.574;2023-06-10T04:37:34;13.10;;;12.10;;
35056;SDS011;21241;51.828;19.574;2023-06-10T04:40:02;13.20;;;12.00;;
35056;SDS011;21241;51.828;19.574;2023-06-10T04:42:31;11.90;;;10.80;;
35056;SDS011;21241;51.828;19.574;2023-06-10T04:44:59;12.30;;;11.40;;
35056;SDS011;21241;51.828;19.574;2023-06-10T04:47:27;11.20;;;10.50;;
35056;SDS011;21241;51.828;19.574;2023-06-10T04:49:55;11.20;;;10.30;;
35056;SDS011;21241;51.828;19.574;2023-06-10T04:52:23;10.60;;;9.80;;
35056;SDS011;21241;51.828;19.574;2023-06-10T04:54:52;11.20;;;10.30;;
35056;SDS011;21241;51.828;19.574;2023-06-10T04:57:21;10.40;;;9.60;;
35056;SDS011;21241;51.828;19.574;2023-06-10T04:59:49;10.30;;;9.50;;
35056;SDS011;21241;51.828;19.574;2023-06-10T05:02:17;10.60;;;9.60;;
35056;SDS011;21241;51.828;19.574;2023-06-10T05:04:45;10.40;;;9.50;;
35056;SDS011;21241;51.828;19.574;2023-06-10T05:07:12;9.90;;;9.10;;
35056;SDS011;21241;51.828;19.574;2023-06-10T05:09:40;10.50;;;9.60;;
35056;SDS011;21241;51.828;19.574;2023-06-10T05:12:08;10.50;;;9.60;;
35056;SDS011;21241;51.828;19.574;2023-06-10T05:14:36;9.90;;;9.10;;
35056;SDS011;21241;51.828;19.574;2023-06-10T05:17:04;10.40;;;9.40;;
35056;SDS011;21241;51.828;19.574;2023-06-10T05:19:33;11.10;;;10.20;;
35056;SDS011;21241;51.828;19.574;2023-06-10T05:22:03;10.90;;;10.00;;
35056;SDS011;21241;51.828;19.574;2023-06-10T05:24:31;9.70;;;8.90;;
35056;SDS011;21241;51.828;19.574;2023-06-10T05:26:58;10.90;;;9.80;;
35056;SDS011;21241;51.828;19.574;2023-06-10T05:29:27;9.90;;;9.10;;
35056;SDS011;21241;51.828;19.574;2023-06-10T05:31:55;10.60;;;9.60;;
35056;SDS011;21241;51.828;19.574;2023-06-10T05:34:24;9.30;;;8.60;;
35056;SDS011;21241;51.828;19.574;2023-06-10T05:36:52;10.30;;;9.40;;
35056;SDS011;21241;51.828;19.574;2023-06-10T05:39:20;9.70;;;8.80;;
35056;SDS011;21241;51.828;19.574;2023-06-10T05:41:47;9.50;;;8.70;;
35056;SDS011;21241;51.828;19.574;2023-06-10T05:44:15;9.70;;;8.80;;
35056;SDS011;21241;51.828;19.574;2023-06-10T05:46:43;8.60;;;7.90;;
35056;SDS011;21241;51.828;19.574;2023-06-10T05:49:10;9.30;;;8.40;;
35056;SDS011;21241;51.828;19.574;2023-06-10T05:51:38;8.50;;;8.00;;
35056;SDS011;21241;51.828;19.574;2023-06-10T05:54:06;8.70;;;8.00;;
35056;SDS011;21241;51.828;19.574;2023-06-10T05:56:34;10.00;;;9.10;;
35056;SDS011;21241;51.828;19.574;2023-06-10T05:59:01;8.70;;;8.00;;
35056;SDS011;21241;51.828;19.574;2023-06-10T06:01:29;8.90;;;8.00;;
35056;SDS011;21241;51.828;19.574;2023-06-10T06:03:57;8.90;;;8.30;;
35056;SDS011;21241;51.828;19.574;2023-06-10T06:06:25;8.70;;;7.80;;
35056;SDS011;21241;51.828;19.574;2023-06-10T06:08:53;8.40;;;7.60;;
35056;SDS011;21241;51.828;19.574;2023-06-10T06:11:20;9.50;;;8.70;;
35056;SDS011;21241;51.828;19.574;2023-06-10T06:13:48;8.70;;;8.00;;
35056;SDS011;21241;51.828;19.574;2023-06-10T06:16:19;10.00;;;9.00;;
35056;SDS011;21241;51.828;19.574;2023-06-10T06:18:47;9.50;;;8.80;;
35056;SDS011;21241;51.828;19.574;2023-06-10T06:21:15;8.50;;;7.80;;
35056;SDS011;21241;51.828;19.574;2023-06-10T06:23:43;9.60;;;8.70;;
35056;SDS011;21241;51.828;19.574;2023-06-10T06:26:11;9.80;;;9.00;;
35056;SDS011;21241;51.828;19.574;2023-06-10T06:28:38;9.50;;;8.50;;
35056;SDS011;21241;51.828;19.574;2023-06-10T06:31:06;9.40;;;8.60;;
35056;SDS011;21241;51.828;19.574;2023-06-10T06:33:34;9.70;;;8.20;;
35056;SDS011;21241;51.828;19.574;2023-06-10T06:36:02;9.90;;;9.00;;
35056;SDS011;21241;51.828;19.574;2023-06-10T06:38:30;10.00;;;9.10;;
35056;SDS011;21241;51.828;19.574;2023-06-10T06:40:59;9.30;;;8.50;;
35056;SDS011;21241;51.828;19.574;2023-06-10T06:43:30;8.90;;;8.10;;
35056;SDS011;21241;51.828;19.574;2023-06-10T06:46:24;9.50;;;8.70;;
35056;SDS011;21241;51.828;19.574;2023-06-10T06:48:51;9.40;;;8.70;;
35056;SDS011;21241;51.828;19.574;2023-06-10T06:51:19;9.40;;;8.70;;
35056;SDS011;21241;51.828;19.574;2023-06-10T06:53:47;10.50;;;9.50;;
35056;SDS011;21241;51.828;19.574;2023-06-10T06:56:17;9.40;;;8.60;;
35056;SDS011;21241;51.828;19.574;2023-06-10T06:58:45;9.40;;;8.70;;
35056;SDS011;21241;51.828;19.574;2023-06-10T07:01:12;9.60;;;8.60;;
35056;SDS011;21241;51.828;19.574;2023-06-10T07:03:41;10.00;;;9.20;;
35056;SDS011;21241;51.828;19.574;2023-06-10T07:06:08;9.50;;;8.80;;
35056;SDS011;21241;51.828;19.574;2023-06-10T07:08:37;10.10;;;9.10;;
35056;SDS011;21241;51.828;19.574;2023-06-10T07:11:04;10.50;;;9.70;;
35056;SDS011;21241;51.828;19.574;2023-06-10T07:13:32;10.20;;;9.30;;
35056;SDS011;21241;51.828;19.574;2023-06-10T07:16:00;9.80;;;9.00;;
35056;SDS011;21241;51.828;19.574;2023-06-10T07:18:28;9.90;;;9.10;;
35056;SDS011;21241;51.828;19.574;2023-06-10T07:20:55;11.10;;;10.20;;
35056;SDS011;21241;51.828;19.574;2023-06-10T07:23:23;10.00;;;9.20;;
35056;SDS011;21241;51.828;19.574;2023-06-10T07:25:51;10.80;;;10.00;;
35056;SDS011;21241;51.828;19.574;2023-06-10T07:28:18;10.90;;;9.80;;
35056;SDS011;21241;51.828;19.574;2023-06-10T07:30:46;9.90;;;9.20;;
35056;SDS011;21241;51.828;19.574;2023-06-10T07:33:14;10.80;;;10.00;;
35056;SDS011;21241;51.828;19.574;2023-06-10T07:35:41;10.70;;;9.70;;
35056;SDS011;21241;51.828;19.574;2023-06-10T07:38:10;9.60;;;8.90;;
35056;SDS011;21241;51.828;19.574;2023-06-10T07:40:38;9.30;;;8.40;;
35056;SDS011;21241;51.828;19.574;2023-06-10T07:43:05;9.90;;;9.10;;
35056;SDS011;21241;51.828;19.574;2023-06-10T07:45:33;9.10;;;8.40;;
35056;SDS011;21241;51.828;19.574;2023-06-10T07:48:01;8.80;;;8.10;;
35056;SDS011;21241;51.828;19.574;2023-06-10T07:50:29;8.70;;;8.10;;
35056;SDS011;21241;51.828;19.574;2023-06-10T07:52:56;9.00;;;8.30;;
35056;SDS011;21241;51.828;19.574;2023-06-10T07:55:24;8.10;;;7.50;;
35056;SDS011;21241;51.828;19.574;2023-06-10T07:57:53;9.20;;;8.30;;
35056;SDS011;21241;51.828;19.574;2023-06-10T08:00:21;8.20;;;7.60;;
35056;SDS011;21241;51.828;19.574;2023-06-10T08:02:49;8.20;;;7.60;;
35056;SDS011;21241;51.828;19.574;2023-06-10T08:05:18;8.50;;;7.90;;
35056;SDS011;21241;51.828;19.574;2023-06-10T08:07:46;8.20;;;7.60;;
35056;SDS011;21241;51.828;19.574;2023-06-10T08:10:14;9.70;;;7.50;;
35056;SDS011;21241;51.828;19.574;2023-06-10T08:12:41;8.80;;;8.20;;
35056;SDS011;21241;51.828;19.574;2023-06-10T08:15:09;8.50;;;7.90;;
35056;SDS011;21241;51.828;19.574;2023-06-10T08:17:38;7.90;;;7.40;;
35056;SDS011;21241;51.828;19.574;2023-06-10T08:20:06;8.10;;;7.50;;
35056;SDS011;21241;51.828;19.574;2023-06-10T08:22:34;8.60;;;8.00;;
35056;SDS011;21241;51.828;19.574;2023-06-10T08:25:02;8.80;;;8.10;;
35056;SDS011;21241;51.828;19.574;2023-06-10T08:27:31;8.30;;;7.60;;
35056;SDS011;21241;51.828;19.574;2023-06-10T08:29:58;7.60;;;7.00;;
35056;SDS011;21241;51.828;19.574;2023-06-10T08:32:29;8.00;;;7.30;;
35056;SDS011;21241;51.828;19.574;2023-06-10T08:34:57;7.80;;;7.00;;
35056;SDS011;21241;51.828;19.574;2023-06-10T08:37:25;7.90;;;7.20;;
35056;SDS011;21241;51.828;19.574;2023-06-10T08:39:52;8.10;;;7.50;;
35056;SDS011;21241;51.828;19.574;2023-06-10T08:42:33;7.40;;;6.80;;
35056;SDS011;21241;51.828;19.574;2023-06-10T08:45:04;7.70;;;7.00;;
35056;SDS011;21241;51.828;19.574;2023-06-10T08:47:33;7.40;;;6.80;;
35056;SDS011;21241;51.828;19.574;2023-06-10T08:50:04;7.90;;;7.10;;
35056;SDS011;21241;51.828;19.574;2023-06-10T08:52:36;7.80;;;7.20;;
35056;SDS011;21241;51.828;19.574;2023-06-10T08:58:00;8.40;;;7.60;;
35056;SDS011;21241;51.828;19.574;2023-06-10T09:00:28;7.80;;;7.20;;
35056;SDS011;21241;51.828;19.574;2023-06-10T09:02:57;8.40;;;7.80;;
35056;SDS011;21241;51.828;19.574;2023-06-10T09:05:34;8.00;;;7.40;;
35056;SDS011;21241;51.828;19.574;2023-06-10T09:08:05;7.10;;;6.60;;
35056;SDS011;21241;51.828;19.574;2023-06-10T09:10:33;7.70;;;6.90;;
35056;SDS011;21241;51.828;19.574;2023-06-10T09:13:01;6.10;;;5.60;;
35056;SDS011;21241;51.828;19.574;2023-06-10T09:15:29;6.70;;;6.10;;
35056;SDS011;21241;51.828;19.574;2023-06-10T09:17:58;7.00;;;6.50;;
35056;SDS011;21241;51.828;19.574;2023-06-10T09:20:27;7.00;;;6.40;;
35056;SDS011;21241;51.828;19.574;2023-06-10T09:22:55;6.90;;;6.40;;
35056;SDS011;21241;51.828;19.574;2023-06-10T09:25:34;6.80;;;6.30;;
35056;SDS011;21241;51.828;19.574;2023-06-10T09:28:12;6.60;;;6.10;;
35056;SDS011;21241;51.828;19.574;2023-06-10T09:30:41;6.40;;;5.90;;
35056;SDS011;21241;51.828;19.574;2023-06-10T09:33:10;6.90;;;6.30;;
35056;SDS011;21241;51.828;19.574;2023-06-10T09:35:44;6.80;;;6.20;;
35056;SDS011;21241;51.828;19.574;2023-06-10T09:38:19;7.50;;;6.80;;
35056;SDS011;21241;51.828;19.574;2023-06-10T09:40:49;6.60;;;6.20;;
35056;SDS011;21241;51.828;19.574;2023-06-10T09:43:18;6.00;;;5.50;;
35056;SDS011;21241;51.828;19.574;2023-06-10T09:45:49;6.10;;;5.70;;
35056;SDS011;21241;51.828;19.574;2023-06-10T09:48:21;7.20;;;5.70;;
35056;SDS011;21241;51.828;19.574;2023-06-10T09:50:49;6.20;;;5.80;;
35056;SDS011;21241;51.828;19.574;2023-06-10T09:53:17;6.50;;;5.90;;
35056;SDS011;21241;51.828;19.574;2023-06-10T09:55:45;5.90;;;5.30;;
35056;SDS011;21241;51.828;19.574;2023-06-10T09:58:14;6.60;;;6.10;;
35056;SDS011;21241;51.828;19.574;2023-06-10T10:00:41;5.80;;;5.40;;
35056;SDS011;21241;51.828;19.574;2023-06-10T10:03:09;6.00;;;5.70;;
35056;SDS011;21241;51.828;19.574;2023-06-10T10:05:37;6.70;;;6.10;;
35056;SDS011;21241;51.828;19.574;2023-06-10T10:08:05;6.00;;;5.50;;
35056;SDS011;21241;51.828;19.574;2023-06-10T10:10:33;6.20;;;5.70;;
35056;SDS011;21241;51.828;19.574;2023-06-10T10:13:01;6.20;;;5.80;;
35056;SDS011;21241;51.828;19.574;2023-06-10T10:15:29;5.90;;;5.40;;
35056;SDS011;21241;51.828;19.574;2023-06-10T10:18:06;5.70;;;5.30;;
35056;SDS011;21241;51.828;19.574;2023-06-10T10:20:37;5.90;;;5.40;;
35056;SDS011;21241;51.828;19.574;2023-06-10T10:23:10;5.90;;;5.50;;
35056;SDS011;21241;51.828;19.574;2023-06-10T10:25:41;5.90;;;5.30;;
35056;SDS011;21241;51.828;19.574;2023-06-10T10:28:11;6.20;;;5.80;;
35056;SDS011;21241;51.828;19.574;2023-06-10T10:30:50;5.70;;;5.30;;
35056;SDS011;21241;51.828;19.574;2023-06-10T10:33:21;6.00;;;5.50;;
35056;SDS011;21241;51.828;19.574;2023-06-10T10:35:51;6.00;;;5.50;;
35056;SDS011;21241;51.828;19.574;2023-06-10T10:38:19;5.00;;;4.60;;
35056;SDS011;21241;51.828;19.574;2023-06-10T10:40:47;5.30;;;4.90;;
35056;SDS011;21241;51.828;19.574;2023-06-10T10:43:15;5.10;;;4.80;;
35056;SDS011;21241;51.828;19.574;2023-06-10T10:45:57;6.30;;;5.70;;
35056;SDS011;21241;51.828;19.574;2023-06-10T10:48:26;5.40;;;5.00;;
35056;SDS011;21241;51.828;19.574;2023-06-10T10:51:00;5.40;;;5.00;;
35056;SDS011;21241;51.828;19.574;2023-06-10T10:53:27;6.50;;;5.90;;
35056;SDS011;21241;51.828;19.574;2023-06-10T10:56:07;6.10;;;5.60;;
35056;SDS011;21241;51.828;19.574;2023-06-10T10:58:38;6.20;;;5.80;;
35056;SDS011;21241;51.828;19.574;2023-06-10T11:01:10;5.80;;;5.30;;
35056;SDS011;21241;51.828;19.574;2023-06-10T11:03:44;5.60;;;4.90;;
35056;SDS011;21241;51.828;19.574;2023-06-10T11:06:17;5.50;;;5.10;;
35056;SDS011;21241;51.828;19.574;2023-06-10T11:08:46;5.40;;;5.00;;
35056;SDS011;21241;51.828;19.574;2023-06-10T11:11:19;5.50;;;5.00;;
35056;SDS011;21241;51.828;19.574;2023-06-10T11:16:29;5.50;;;5.10;;
35056;SDS011;21241;51.828;19.574;2023-06-10T11:18:57;6.10;;;5.50;;
35056;SDS011;21241;51.828;19.574;2023-06-10T11:21:25;6.00;;;5.50;;
35056;SDS011;21241;51.828;19.574;2023-06-10T11:23:57;5.90;;;5.40;;
35056;SDS011;21241;51.828;19.574;2023-06-10T11:31:27;5.90;;;5.50;;
35056;SDS011;21241;51.828;19.574;2023-06-10T11:33:57;5.80;;;5.30;;
35056;SDS011;21241;51.828;19.574;2023-06-10T11:36:30;6.60;;;6.10;;
35056;SDS011;21241;51.828;19.574;2023-06-10T11:39:00;5.70;;;5.20;;
35056;SDS011;21241;51.828;19.574;2023-06-10T11:41:30;5.90;;;5.50;;
35056;SDS011;21241;51.828;19.574;2023-06-10T11:44:02;5.70;;;5.30;;
35056;SDS011;21241;51.828;19.574;2023-06-10T11:46:33;6.10;;;5.60;;
35056;SDS011;21241;51.828;19.574;2023-06-10T11:49:02;6.50;;;5.90;;
35056;SDS011;21241;51.828;19.574;2023-06-10T11:51:35;5.90;;;5.40;;
35056;SDS011;21241;51.828;19.574;2023-06-10T11:54:04;5.90;;;5.40;;
35056;SDS011;21241;51.828;19.574;2023-06-10T11:56:32;6.10;;;5.50;;
35056;SDS011;21241;51.828;19.574;2023-06-10T11:59:01;5.90;;;5.40;;
35056;SDS011;21241;51.828;19.574;2023-06-10T12:01:35;6.10;;;5.50;;
35056;SDS011;21241;51.828;19.574;2023-06-10T12:04:08;6.10;;;5.60;;
35056;SDS011;21241;51.828;19.574;2023-06-10T12:06:50;6.10;;;5.60;;
35056;SDS011;21241;51.828;19.574;2023-06-10T12:11:57;6.20;;;5.60;;
35056;SDS011;21241;51.828;19.574;2023-06-10T12:17:20;6.00;;;5.40;;
35056;SDS011;21241;51.828;19.574;2023-06-10T12:20:03;5.70;;;5.20;;
35056;SDS011;21241;51.828;19.574;2023-06-10T12:22:36;6.30;;;5.70;;
35056;SDS011;21241;51.828;19.574;2023-06-10T12:25:05;6.80;;;6.10;;
35056;SDS011;21241;51.828;19.574;2023-06-10T12:27:35;6.30;;;5.80;;
35056;SDS011;21241;51.828;19.574;2023-06-10T12:30:04;5.80;;;5.40;;
35056;SDS011;21241;51.828;19.574;2023-06-10T12:32:38;5.80;;;5.30;;
35056;SDS011;21241;51.828;19.574;2023-06-10T12:35:11;6.00;;;5.40;;
35056;SDS011;21241;51.828;19.574;2023-06-10T12:37:41;5.70;;;5.20;;
35056;SDS011;21241;51.828;19.574;2023-06-10T12:40:10;6.50;;;5.90;;
35056;SDS011;21241;51.828;19.574;2023-06-10T12:42:39;5.90;;;5.40;;
35056;SDS011;21241;51.828;19.574;2023-06-10T12:45:07;5.50;;;5.00;;
35056;SDS011;21241;51.828;19.574;2023-06-10T12:47:38;5.90;;;5.40;;
35056;SDS011;21241;51.828;19.574;2023-06-10T12:50:07;5.90;;;5.40;;
35056;SDS011;21241;51.828;19.574;2023-06-10T12:52:35;6.40;;;5.80;;
35056;SDS011;21241;51.828;19.574;2023-06-10T12:55:03;5.70;;;5.20;;
35056;SDS011;21241;51.828;19.574;2023-06-10T12:57:32;6.90;;;6.20;;
35056;SDS011;21241;51.828;19.574;2023-06-10T12:59:59;6.00;;;5.50;;
35056;SDS011;21241;51.828;19.574;2023-06-10T13:02:32;7.50;;;5.50;;
35056;SDS011;21241;51.828;19.574;2023-06-10T13:05:00;6.20;;;5.10;;
35056;SDS011;21241;51.828;19.574;2023-06-10T13:07:30;5.40;;;5.00;;
35056;SDS011;21241;51.828;19.574;2023-06-10T13:09:58;6.10;;;5.20;;
35056;SDS011;21241;51.828;19.574;2023-06-10T13:12:27;5.50;;;5.10;;
35056;SDS011;21241;51.828;19.574;2023-06-10T13:15:13;5.80;;;4.80;;
35056;SDS011;21241;51.828;19.574;2023-06-10T13:17:42;8.80;;;5.60;;
35056;SDS011;21241;51.828;19.574;2023-06-10T13:20:11;5.40;;;5.00;;
35056;SDS011;21241;51.828;19.574;2023-06-10T13:22:38;5.60;;;5.20;;
35056;SDS011;21241;51.828;19.574;2023-06-10T13:25:07;5.90;;;5.50;;
35056;SDS011;21241;51.828;19.574;2023-06-10T13:27:36;7.80;;;6.30;;
35056;SDS011;21241;51.828;19.574;2023-06-10T13:30:06;6.60;;;6.00;;
35056;SDS011;21241;51.828;19.574;2023-06-10T13:32:36;6.00;;;5.50;;
35056;SDS011;21241;51.828;19.574;2023-06-10T13:35:04;8.00;;;5.40;;
35056;SDS011;21241;51.828;19.574;2023-06-10T13:37:33;5.50;;;5.10;;
35056;SDS011;21241;51.828;19.574;2023-06-10T13:40:01;5.80;;;5.40;;
35056;SDS011;21241;51.828;19.574;2023-06-10T13:42:30;5.80;;;5.20;;
35056;SDS011;21241;51.828;19.574;2023-06-10T13:44:58;5.60;;;5.20;;
35056;SDS011;21241;51.828;19.574;2023-06-10T13:47:26;6.80;;;5.60;;
35056;SDS011;21241;51.828;19.574;2023-06-10T13:49:54;7.00;;;5.90;;
35056;SDS011;21241;51.828;19.574;2023-06-10T13:52:22;6.10;;;5.60;;
35056;SDS011;21241;51.828;19.574;2023-06-10T13:54:50;6.40;;;5.90;;
35056;SDS011;21241;51.828;19.574;2023-06-10T13:57:18;6.00;;;5.50;;
35056;SDS011;21241;51.828;19.574;2023-06-10T13:59:45;5.60;;;5.10;;
35056;SDS011;21241;51.828;19.574;2023-06-10T14:02:13;5.80;;;5.20;;
35056;SDS011;21241;51.828;19.574;2023-06-10T14:04:41;5.40;;;4.90;;
35056;SDS011;21241;51.828;19.574;2023-06-10T14:07:09;5.70;;;5.30;;
35056;SDS011;21241;51.828;19.574;2023-06-10T14:09:36;5.50;;;5.10;;
35056;SDS011;21241;51.828;19.574;2023-06-10T14:12:04;5.50;;;5.10;;
35056;SDS011;21241;51.828;19.574;2023-06-10T14:14:32;5.30;;;4.90;;
35056;SDS011;21241;51.828;19.574;2023-06-10T14:17:00;6.30;;;5.60;;
35056;SDS011;21241;51.828;19.574;2023-06-10T14:19:28;5.30;;;4.90;;
35056;SDS011;21241;51.828;19.574;2023-06-10T14:21:56;5.20;;;4.70;;
35056;SDS011;21241;51.828;19.574;2023-06-10T14:24:24;5.30;;;4.90;;
35056;SDS011;21241;51.828;19.574;2023-06-10T14:26:52;6.40;;;5.90;;
35056;SDS011;21241;51.828;19.574;2023-06-10T14:29:19;5.30;;;4.90;;
35056;SDS011;21241;51.828;19.574;2023-06-10T14:31:48;5.40;;;5.00;;
35056;SDS011;21241;51.828;19.574;2023-06-10T14:34:16;5.30;;;4.90;;
35056;SDS011;21241;51.828;19.574;2023-06-10T14:36:43;5.80;;;5.30;;
35056;SDS011;21241;51.828;19.574;2023-06-10T14:39:11;6.70;;;5.20;;
35056;SDS011;21241;51.828;19.574;2023-06-10T14:41:39;5.80;;;5.30;;
35056;SDS011;21241;51.828;19.574;2023-06-10T14:44:07;5.60;;;5.00;;
35056;SDS011;21241;51.828;19.574;2023-06-10T14:46:34;5.50;;;5.10;;
35056;SDS011;21241;51.828;19.574;2023-06-10T14:49:02;5.40;;;5.00;;
35056;SDS011;21241;51.828;19.574;2023-06-10T14:51:30;5.50;;;5.00;;